sensor_id;sensor_type;location;lat;lon;timestamp;temperature;humidity
26037;DHT22;13810;48.376;10.944;2022-09-30T00:00:16;8.20;99.90
26037;DHT22;13810;48.376;10.944;2022-09-30T00:00:46;8.20;99.90
26037;DHT22;13810;48.376;10.944;2022-09-30T00:01:17;8.20;99.90
26037;DHT22;13810;48.376;10.944;2022-09-30T00:01:49;8.10;99.90
26037;DHT22;13810;48.376;10.944;2022-09-30T00:02:23;8.10;99.90
26037;DHT22;13810;48.376;10.944;2022-09-30T00:02:54;8.10;99.90
26037;DHT22;13810;48.376;10.944;2022-09-30T00:03:25;8.10;99.90
26037;DHT22;13810;48.376;10.944;2022-09-30T00:03:56;8.10;99.90
26037;DHT22;13810;48.376;10.944;2022-09-30T00:04:27;8.10;99.90
26037;DHT22;13810;48.376;10.944;2022-09-30T00:04:57;8.10;99.90
26037;DHT22;13810;48.376;10.944;2022-09-30T00:05:28;8.00;99.90
26037;DHT22;13810;48.376;10.944;2022-09-30T00:06:01;8.00;99.90
26037;DHT22;13810;48.376;10.944;2022-09-30T00:06:32;8.00;99.90
26037;DHT22;13810;48.376;10.944;2022-09-30T00:07:04;8.00;99.90
26037;DHT22;13810;48.376;10.944;2022-09-30T00:07:35;8.00;99.90
26037;DHT22;13810;48.376;10.944;2022-09-30T00:08:05;8.00;99.90
26037;DHT22;13810;48.376;10.944;2022-09-30T00:08:37;7.90;99.90
26037;DHT22;13810;48.376;10.944;2022-09-30T00:09:08;7.90;99.90
26037;DHT22;13810;48.376;10.944;2022-09-30T00:09:40;7.90;99.90
26037;DHT22;13810;48.376;10.944;2022-09-30T00:10:11;7.90;99.90
26037;DHT22;13810;48.376;10.944;2022-09-30T00:10:43;7.90;99.90
26037;DHT22;13810;48.376;10.944;2022-09-30T00:11:16;7.90;99.90
26037;DHT22;13810;48.376;10.944;2022-09-30T00:11:47;7.80;99.90
26037;DHT22;13810;48.376;10.944;2022-09-30T00:12:18;7.80;99.90
26037;DHT22;13810;48.376;10.944;2022-09-30T00:12:51;7.80;99.90
26037;DHT22;13810;48.376;10.944;2022-09-30T00:13:21;7.80;99.90
26037;DHT22;13810;48.376;10.944;2022-09-30T00:13:53;7.80;99.90
26037;DHT22;13810;48.376;10.944;2022-09-30T00:14:24;7.80;99.90
26037;DHT22;13810;48.376;10.944;2022-09-30T00:14:55;7.80;99.90
26037;DHT22;13810;48.376;10.944;2022-09-30T00:15:26;7.80;99.90
26037;DHT22;13810;48.376;10.944;2022-09-30T00:15:58;7.70;99.90
26037;DHT22;13810;48.376;10.944;2022-09-30T00:16:31;7.70;99.90
26037;DHT22;13810;48.376;10.944;2022-09-30T00:17:03;7.70;99.90
26037;DHT22;13810;48.376;10.944;2022-09-30T00:17:34;7.70;99.90
26037;DHT22;13810;48.376;10.944;2022-09-30T00:18:05;7.70;99.90
26037;DHT22;13810;48.376;10.944;2022-09-30T00:18:36;7.70;99.90
26037;DHT22;13810;48.376;10.944;2022-09-30T00:19:07;7.70;99.90
26037;DHT22;13810;48.376;10.944;2022-09-30T00:19:38;7.60;99.90
26037;DHT22;13810;48.376;10.944;2022-09-30T00:20:09;7.60;99.90
26037;DHT22;13810;48.376;10.944;2022-09-30T00:20:40;7.60;99.90
26037;DHT22;13810;48.376;10.944;2022-09-30T00:21:11;7.60;99.90
26037;DHT22;13810;48.376;10.944;2022-09-30T00:21:43;7.60;99.90
26037;DHT22;13810;48.376;10.944;2022-09-30T00:22:13;7.60;99.90
26037;DHT22;13810;48.376;10.944;2022-09-30T00:22:44;7.60;99.90
26037;DHT22;13810;48.376;10.944;2022-09-30T00:23:15;7.60;99.90
26037;DHT22;13810;48.376;10.944;2022-09-30T00:23:46;7.60;99.90
26037;DHT22;13810;48.376;10.944;2022-09-30T00:24:16;7.60;99.90
26037;DHT22;13810;48.376;10.944;2022-09-30T00:24:47;7.60;99.90
26037;DHT22;13810;48.376;10.944;2022-09-30T00:25:18;7.60;99.90
26037;DHT22;13810;48.376;10.944;2022-09-30T00:25:49;7.50;99.90
26037;DHT22;13810;48.376;10.944;2022-09-30T00:26:21;7.50;99.90
26037;DHT22;13810;48.376;10.944;2022-09-30T00:26:52;7.50;99.90
26037;DHT22;13810;48.376;10.944;2022-09-30T00:27:23;7.50;99.90
26037;DHT22;13810;48.376;10.944;2022-09-30T00:27:53;7.50;99.90
26037;DHT22;13810;48.376;10.944;2022-09-30T00:28:25;7.40;99.90
26037;DHT22;13810;48.376;10.944;2022-09-30T00:28:57;7.40;99.90
26037;DHT22;13810;48.376;10.944;2022-09-30T00:29:28;7.40;99.90
26037;DHT22;13810;48.376;10.944;2022-09-30T00:29:59;7.40;99.90
26037;DHT22;13810;48.376;10.944;2022-09-30T00:30:30;7.40;99.90
26037;DHT22;13810;48.376;10.944;2022-09-30T00:31:03;7.30;99.90
26037;DHT22;13810;48.376;10.944;2022-09-30T00:31:35;7.30;99.90
26037;DHT22;13810;48.376;10.944;2022-09-30T00:32:06;7.30;99.90
26037;DHT22;13810;48.376;10.944;2022-09-30T00:32:36;7.30;99.90
26037;DHT22;13810;48.376;10.944;2022-09-30T00:33:08;7.30;99.90
26037;DHT22;13810;48.376;10.944;2022-09-30T00:33:39;7.30;99.90
26037;DHT22;13810;48.376;10.944;2022-09-30T00:34:10;7.30;99.90
26037;DHT22;13810;48.376;10.944;2022-09-30T00:34:41;7.30;99.90
26037;DHT22;13810;48.376;10.944;2022-09-30T00:35:12;7.30;99.90
26037;DHT22;13810;48.376;10.944;2022-09-30T00:35:42;7.30;99.90
26037;DHT22;13810;48.376;10.944;2022-09-30T00:36:13;7.30;99.90
26037;DHT22;13810;48.376;10.944;2022-09-30T00:36:51;7.20;99.90
26037;DHT22;13810;48.376;10.944;2022-09-30T00:37:22;7.30;99.90
26037;DHT22;13810;48.376;10.944;2022-09-30T00:37:52;7.30;99.90
26037;DHT22;13810;48.376;10.944;2022-09-30T00:38:24;7.30;99.90
26037;DHT22;13810;48.376;10.944;2022-09-30T00:38:55;7.30;99.90
26037;DHT22;13810;48.376;10.944;2022-09-30T00:39:27;7.30;99.90
26037;DHT22;13810;48.376;10.944;2022-09-30T00:39:58;7.30;99.90
26037;DHT22;13810;48.376;10.944;2022-09-30T00:40:29;7.30;99.90
26037;DHT22;13810;48.376;10.944;2022-09-30T00:41:01;7.30;99.90
26037;DHT22;13810;48.376;10.944;2022-09-30T00:41:32;7.30;99.90
26037;DHT22;13810;48.376;10.944;2022-09-30T00:42:06;7.30;99.90
26037;DHT22;13810;48.376;10.944;2022-09-30T00:42:40;7.30;99.90
26037;DHT22;13810;48.376;10.944;2022-09-30T00:43:19;7.30;99.90
26037;DHT22;13810;48.376;10.944;2022-09-30T00:43:50;7.30;99.90
26037;DHT22;13810;48.376;10.944;2022-09-30T00:44:54;7.30;99.90
26037;DHT22;13810;48.376;10.944;2022-09-30T00:45:31;7.20;99.90
26037;DHT22;13810;48.376;10.944;2022-09-30T00:46:02;7.30;99.90
26037;DHT22;13810;48.376;10.944;2022-09-30T00:46:37;7.30;99.90
26037;DHT22;13810;48.376;10.944;2022-09-30T00:48:37;7.20;99.90
26037;DHT22;13810;48.376;10.944;2022-09-30T00:49:14;7.20;99.90
26037;DHT22;13810;48.376;10.944;2022-09-30T00:49:49;7.20;99.90
26037;DHT22;13810;48.376;10.944;2022-09-30T00:50:25;7.20;99.90
26037;DHT22;13810;48.376;10.944;2022-09-30T00:50:57;7.20;99.90
26037;DHT22;13810;48.376;10.944;2022-09-30T00:51:32;7.20;99.90
26037;DHT22;13810;48.376;10.944;2022-09-30T00:52:04;7.20;99.90
26037;DHT22;13810;48.376;10.944;2022-09-30T00:52:35;7.20;99.90
26037;DHT22;13810;48.376;10.944;2022-09-30T00:53:15;7.20;99.90
26037;DHT22;13810;48.376;10.944;2022-09-30T00:53:51;7.20;99.90
26037;DHT22;13810;48.376;10.944;2022-09-30T00:54:29;7.20;99.90
26037;DHT22;13810;48.376;10.944;2022-09-30T00:55:03;7.20;99.90
26037;DHT22;13810;48.376;10.944;2022-09-30T00:55:50;7.20;99.90
26037;DHT22;13810;48.376;10.944;2022-09-30T00:56:26;7.10;99.90
26037;DHT22;13810;48.376;10.944;2022-09-30T00:57:02;7.10;99.90
26037;DHT22;13810;48.376;10.944;2022-09-30T00:57:34;7.10;99.90
26037;DHT22;13810;48.376;10.944;2022-09-30T00:58:07;7.10;99.90
26037;DHT22;13810;48.376;10.944;2022-09-30T00:58:44;7.10;99.90
26037;DHT22;13810;48.376;10.944;2022-09-30T00:59:20;7.10;99.90
26037;DHT22;13810;48.376;10.944;2022-09-30T00:59:51;7.10;99.90
26037;DHT22;13810;48.376;10.944;2022-09-30T01:00:22;7.10;99.90
26037;DHT22;13810;48.376;10.944;2022-09-30T01:00:53;7.10;99.90
26037;DHT22;13810;48.376;10.944;2022-09-30T01:01:24;7.10;99.90
26037;DHT22;13810;48.376;10.944;2022-09-30T01:01:55;7.00;99.90
26037;DHT22;13810;48.376;10.944;2022-09-30T01:02:26;7.00;99.90
26037;DHT22;13810;48.376;10.944;2022-09-30T01:02:57;7.00;99.90
26037;DHT22;13810;48.376;10.944;2022-09-30T01:03:33;7.00;99.90
26037;DHT22;13810;48.376;10.944;2022-09-30T01:04:12;7.00;99.90
26037;DHT22;13810;48.376;10.944;2022-09-30T01:04:44;7.00;99.90
26037;DHT22;13810;48.376;10.944;2022-09-30T01:05:15;7.00;99.90
26037;DHT22;13810;48.376;10.944;2022-09-30T01:05:46;7.00;99.90
26037;DHT22;13810;48.376;10.944;2022-09-30T01:06:19;7.00;99.90
26037;DHT22;13810;48.376;10.944;2022-09-30T01:06:51;7.00;99.90
26037;DHT22;13810;48.376;10.944;2022-09-30T01:07:22;7.00;99.90
26037;DHT22;13810;48.376;10.944;2022-09-30T01:07:57;6.90;99.90
26037;DHT22;13810;48.376;10.944;2022-09-30T01:08:29;6.90;99.90
26037;DHT22;13810;48.376;10.944;2022-09-30T01:09:01;6.90;99.90
26037;DHT22;13810;48.376;10.944;2022-09-30T01:09:37;6.90;99.90
26037;DHT22;13810;48.376;10.944;2022-09-30T01:10:08;6.90;99.90
26037;DHT22;13810;48.376;10.944;2022-09-30T01:10:39;6.90;99.90
26037;DHT22;13810;48.376;10.944;2022-09-30T01:11:10;6.90;99.90
26037;DHT22;13810;48.376;10.944;2022-09-30T01:11:40;6.90;99.90
26037;DHT22;13810;48.376;10.944;2022-09-30T01:12:13;6.80;99.90
26037;DHT22;13810;48.376;10.944;2022-09-30T01:12:45;6.80;99.90
26037;DHT22;13810;48.376;10.944;2022-09-30T01:13:17;6.80;99.90
26037;DHT22;13810;48.376;10.944;2022-09-30T01:13:51;6.80;99.90
26037;DHT22;13810;48.376;10.944;2022-09-30T01:14:24;6.80;99.90
26037;DHT22;13810;48.376;10.944;2022-09-30T01:14:57;6.80;99.90
26037;DHT22;13810;48.376;10.944;2022-09-30T01:18:25;6.80;99.90
26037;DHT22;13810;48.376;10.944;2022-09-30T01:23:52;6.80;99.90
26037;DHT22;13810;48.376;10.944;2022-09-30T01:28:27;6.80;99.90
26037;DHT22;13810;48.376;10.944;2022-09-30T01:31:48;6.80;99.90
26037;DHT22;13810;48.376;10.944;2022-09-30T01:35:37;6.80;99.90
26037;DHT22;13810;48.376;10.944;2022-09-30T01:37:14;6.80;99.90
26037;DHT22;13810;48.376;10.944;2022-09-30T01:40:02;6.80;99.90
26037;DHT22;13810;48.376;10.944;2022-09-30T01:40:48;6.80;99.90
26037;DHT22;13810;48.376;10.944;2022-09-30T01:41:41;6.70;99.90
26037;DHT22;13810;48.376;10.944;2022-09-30T01:44:11;6.70;99.90
26037;DHT22;13810;48.376;10.944;2022-09-30T01:44:48;6.70;99.90
26037;DHT22;13810;48.376;10.944;2022-09-30T01:45:39;6.70;99.90
26037;DHT22;13810;48.376;10.944;2022-09-30T01:46:26;6.60;99.90
26037;DHT22;13810;48.376;10.944;2022-09-30T01:47:14;6.70;99.90
26037;DHT22;13810;48.376;10.944;2022-09-30T01:48:01;6.60;99.90
26037;DHT22;13810;48.376;10.944;2022-09-30T01:48:45;6.60;99.90
26037;DHT22;13810;48.376;10.944;2022-09-30T01:51:06;6.60;99.90
26037;DHT22;13810;48.376;10.944;2022-09-30T01:51:50;6.50;99.90
26037;DHT22;13810;48.376;10.944;2022-09-30T01:52:39;6.60;99.90
26037;DHT22;13810;48.376;10.944;2022-09-30T01:53:36;6.60;99.90
26037;DHT22;13810;48.376;10.944;2022-09-30T01:55:31;6.60;99.90
26037;DHT22;13810;48.376;10.944;2022-09-30T01:56:13;6.60;99.90
26037;DHT22;13810;48.376;10.944;2022-09-30T01:56:52;6.60;99.90
26037;DHT22;13810;48.376;10.944;2022-09-30T01:57:45;6.60;99.90
26037;DHT22;13810;48.376;10.944;2022-09-30T01:58:27;6.60;99.90
26037;DHT22;13810;48.376;10.944;2022-09-30T01:59:19;6.60;99.90
26037;DHT22;13810;48.376;10.944;2022-09-30T02:00:05;6.60;99.90
26037;DHT22;13810;48.376;10.944;2022-09-30T02:00:41;6.60;99.90
26037;DHT22;13810;48.376;10.944;2022-09-30T02:01:21;6.60;99.90
26037;DHT22;13810;48.376;10.944;2022-09-30T02:02:04;6.60;99.90
26037;DHT22;13810;48.376;10.944;2022-09-30T02:03:24;6.60;99.90
26037;DHT22;13810;48.376;10.944;2022-09-30T02:04:01;6.60;99.90
26037;DHT22;13810;48.376;10.944;2022-09-30T02:04:40;6.60;99.90
26037;DHT22;13810;48.376;10.944;2022-09-30T02:06:00;6.60;99.90
26037;DHT22;13810;48.376;10.944;2022-09-30T02:06:23;6.60;99.90
26037;DHT22;13810;48.376;10.944;2022-09-30T02:07:00;6.60;99.90
26037;DHT22;13810;48.376;10.944;2022-09-30T02:07:40;6.60;99.90
26037;DHT22;13810;48.376;10.944;2022-09-30T02:08:20;6.70;99.90
26037;DHT22;13810;48.376;10.944;2022-09-30T02:08:57;6.70;99.90
26037;DHT22;13810;48.376;10.944;2022-09-30T02:09:35;6.70;99.90
26037;DHT22;13810;48.376;10.944;2022-09-30T02:10:16;6.70;99.90
26037;DHT22;13810;48.376;10.944;2022-09-30T02:11:07;6.70;99.90
26037;DHT22;13810;48.376;10.944;2022-09-30T02:11:39;6.80;99.90
26037;DHT22;13810;48.376;10.944;2022-09-30T02:12:14;6.80;99.90
26037;DHT22;13810;48.376;10.944;2022-09-30T02:12:55;6.80;99.90
26037;DHT22;13810;48.376;10.944;2022-09-30T02:13:44;6.80;99.90
26037;DHT22;13810;48.376;10.944;2022-09-30T02:14:34;6.80;99.90
26037;DHT22;13810;48.376;10.944;2022-09-30T02:15:12;6.90;99.90
26037;DHT22;13810;48.376;10.944;2022-09-30T02:15:49;6.90;99.90
26037;DHT22;13810;48.376;10.944;2022-09-30T02:16:27;6.90;99.90
26037;DHT22;13810;48.376;10.944;2022-09-30T02:17:20;6.90;99.90
26037;DHT22;13810;48.376;10.944;2022-09-30T02:17:56;6.90;99.90
26037;DHT22;13810;48.376;10.944;2022-09-30T02:18:37;7.00;99.90
26037;DHT22;13810;48.376;10.944;2022-09-30T02:19:37;7.00;99.90
26037;DHT22;13810;48.376;10.944;2022-09-30T02:20:14;7.00;99.90
26037;DHT22;13810;48.376;10.944;2022-09-30T02:20:50;7.00;99.90
26037;DHT22;13810;48.376;10.944;2022-09-30T02:21:27;7.00;99.90
26037;DHT22;13810;48.376;10.944;2022-09-30T02:22:06;7.10;99.90
26037;DHT22;13810;48.376;10.944;2022-09-30T02:22:46;7.10;99.90
26037;DHT22;13810;48.376;10.944;2022-09-30T02:23:30;7.10;99.90
26037;DHT22;13810;48.376;10.944;2022-09-30T02:24:05;7.10;99.90
26037;DHT22;13810;48.376;10.944;2022-09-30T02:24:37;7.10;99.90
26037;DHT22;13810;48.376;10.944;2022-09-30T02:25:14;7.10;99.90
26037;DHT22;13810;48.376;10.944;2022-09-30T02:25:54;7.10;99.90
26037;DHT22;13810;48.376;10.944;2022-09-30T02:26:31;7.20;99.90
26037;DHT22;13810;48.376;10.944;2022-09-30T02:27:10;7.10;99.90
26037;DHT22;13810;48.376;10.944;2022-09-30T02:27:48;7.20;99.90
26037;DHT22;13810;48.376;10.944;2022-09-30T02:28:24;7.20;99.90
26037;DHT22;13810;48.376;10.944;2022-09-30T02:29:01;7.20;99.90
26037;DHT22;13810;48.376;10.944;2022-09-30T02:30:21;7.30;99.90
26037;DHT22;13810;48.376;10.944;2022-09-30T02:30:55;7.30;99.90
26037;DHT22;13810;48.376;10.944;2022-09-30T02:31:27;7.30;99.90
26037;DHT22;13810;48.376;10.944;2022-09-30T02:32:25;7.30;99.90
26037;DHT22;13810;48.376;10.944;2022-09-30T02:32:58;7.30;99.90
26037;DHT22;13810;48.376;10.944;2022-09-30T02:33:39;7.30;99.90
26037;DHT22;13810;48.376;10.944;2022-09-30T02:34:14;7.30;99.90
26037;DHT22;13810;48.376;10.944;2022-09-30T02:35:02;7.30;99.90
26037;DHT22;13810;48.376;10.944;2022-09-30T02:35:38;7.40;99.90
26037;DHT22;13810;48.376;10.944;2022-09-30T02:36:32;7.40;99.90
26037;DHT22;13810;48.376;10.944;2022-09-30T02:37:14;7.40;99.90
26037;DHT22;13810;48.376;10.944;2022-09-30T02:37:51;7.40;99.90
26037;DHT22;13810;48.376;10.944;2022-09-30T02:38:29;7.40;99.90
26037;DHT22;13810;48.376;10.944;2022-09-30T02:39:09;7.40;99.90
26037;DHT22;13810;48.376;10.944;2022-09-30T02:40:24;7.40;99.90
26037;DHT22;13810;48.376;10.944;2022-09-30T02:41:01;7.50;99.90
26037;DHT22;13810;48.376;10.944;2022-09-30T02:41:49;7.50;99.90
26037;DHT22;13810;48.376;10.944;2022-09-30T02:42:24;7.50;99.90
26037;DHT22;13810;48.376;10.944;2022-09-30T02:42:58;7.50;99.90
26037;DHT22;13810;48.376;10.944;2022-09-30T02:43:29;7.50;99.90
26037;DHT22;13810;48.376;10.944;2022-09-30T02:44:01;7.50;99.90
26037;DHT22;13810;48.376;10.944;2022-09-30T02:44:32;7.50;99.90
26037;DHT22;13810;48.376;10.944;2022-09-30T02:45:08;7.50;99.90
26037;DHT22;13810;48.376;10.944;2022-09-30T02:46:06;7.50;99.90
26037;DHT22;13810;48.376;10.944;2022-09-30T02:48:13;7.60;99.90
26037;DHT22;13810;48.376;10.944;2022-09-30T02:49:54;7.60;99.90
26037;DHT22;13810;48.376;10.944;2022-09-30T02:51:16;7.60;99.90
26037;DHT22;13810;48.376;10.944;2022-09-30T02:54:46;7.60;99.90
26037;DHT22;13810;48.376;10.944;2022-09-30T02:56:32;7.60;99.90
26037;DHT22;13810;48.376;10.944;2022-09-30T02:57:20;7.70;99.90
26037;DHT22;13810;48.376;10.944;2022-09-30T02:58:13;7.60;99.90
26037;DHT22;13810;48.376;10.944;2022-09-30T02:58:44;7.70;99.90
26037;DHT22;13810;48.376;10.944;2022-09-30T02:59:15;7.60;99.90
26037;DHT22;13810;48.376;10.944;2022-09-30T02:59:49;7.70;99.90
26037;DHT22;13810;48.376;10.944;2022-09-30T03:00:20;7.70;99.90
26037;DHT22;13810;48.376;10.944;2022-09-30T03:00:52;7.70;99.90
26037;DHT22;13810;48.376;10.944;2022-09-30T03:01:24;7.70;99.90
26037;DHT22;13810;48.376;10.944;2022-09-30T03:01:55;7.70;99.90
26037;DHT22;13810;48.376;10.944;2022-09-30T03:02:26;7.70;99.90
26037;DHT22;13810;48.376;10.944;2022-09-30T03:03:08;7.70;99.90
26037;DHT22;13810;48.376;10.944;2022-09-30T03:03:42;7.70;99.90
26037;DHT22;13810;48.376;10.944;2022-09-30T03:04:19;7.70;99.90
26037;DHT22;13810;48.376;10.944;2022-09-30T03:04:51;7.70;99.90
26037;DHT22;13810;48.376;10.944;2022-09-30T03:05:22;7.70;99.90
26037;DHT22;13810;48.376;10.944;2022-09-30T03:05:52;7.70;99.90
26037;DHT22;13810;48.376;10.944;2022-09-30T03:06:24;7.70;99.90
26037;DHT22;13810;48.376;10.944;2022-09-30T03:06:54;7.70;99.90
26037;DHT22;13810;48.376;10.944;2022-09-30T03:07:25;7.70;99.90
26037;DHT22;13810;48.376;10.944;2022-09-30T03:07:56;7.70;99.90
26037;DHT22;13810;48.376;10.944;2022-09-30T03:08:27;7.80;99.90
26037;DHT22;13810;48.376;10.944;2022-09-30T03:08:58;7.80;99.90
26037;DHT22;13810;48.376;10.944;2022-09-30T03:09:28;7.80;99.90
26037;DHT22;13810;48.376;10.944;2022-09-30T03:09:59;7.80;99.90
26037;DHT22;13810;48.376;10.944;2022-09-30T03:10:30;7.80;99.90
26037;DHT22;13810;48.376;10.944;2022-09-30T03:11:02;7.80;99.90
26037;DHT22;13810;48.376;10.944;2022-09-30T03:11:34;7.80;99.90
26037;DHT22;13810;48.376;10.944;2022-09-30T03:12:13;7.80;99.90
26037;DHT22;13810;48.376;10.944;2022-09-30T03:14:49;7.80;99.90
26037;DHT22;13810;48.376;10.944;2022-09-30T03:17:39;7.90;99.90
26037;DHT22;13810;48.376;10.944;2022-09-30T03:18:47;7.90;99.90
26037;DHT22;13810;48.376;10.944;2022-09-30T03:20:07;7.90;99.90
26037;DHT22;13810;48.376;10.944;2022-09-30T03:20:52;7.90;99.90
26037;DHT22;13810;48.376;10.944;2022-09-30T03:22:35;7.90;99.90
26037;DHT22;13810;48.376;10.944;2022-09-30T03:25:13;7.90;99.90
26037;DHT22;13810;48.376;10.944;2022-09-30T03:28:28;7.90;99.90
26037;DHT22;13810;48.376;10.944;2022-09-30T03:30:29;7.90;99.90
26037;DHT22;13810;48.376;10.944;2022-09-30T03:31:13;7.90;99.90
26037;DHT22;13810;48.376;10.944;2022-09-30T03:31:56;7.90;99.90
26037;DHT22;13810;48.376;10.944;2022-09-30T03:33:38;8.00;99.90
26037;DHT22;13810;48.376;10.944;2022-09-30T03:34:27;7.90;99.90
26037;DHT22;13810;48.376;10.944;2022-09-30T03:36:57;8.00;99.90
26037;DHT22;13810;48.376;10.944;2022-09-30T03:40:36;8.00;99.90
26037;DHT22;13810;48.376;10.944;2022-09-30T03:41:34;8.00;99.90
26037;DHT22;13810;48.376;10.944;2022-09-30T03:42:21;8.00;99.90
26037;DHT22;13810;48.376;10.944;2022-09-30T03:43:19;8.00;99.90
26037;DHT22;13810;48.376;10.944;2022-09-30T03:44:01;8.00;99.90
26037;DHT22;13810;48.376;10.944;2022-09-30T03:44:41;8.00;99.90
26037;DHT22;13810;48.376;10.944;2022-09-30T03:45:19;8.00;99.90
26037;DHT22;13810;48.376;10.944;2022-09-30T03:45:59;7.90;99.90
26037;DHT22;13810;48.376;10.944;2022-09-30T03:46:35;8.00;99.90
26037;DHT22;13810;48.376;10.944;2022-09-30T03:47:12;8.00;99.90
26037;DHT22;13810;48.376;10.944;2022-09-30T03:47:46;8.00;99.90
26037;DHT22;13810;48.376;10.944;2022-09-30T03:48:19;8.00;99.90
26037;DHT22;13810;48.376;10.944;2022-09-30T03:48:54;8.00;99.90
26037;DHT22;13810;48.376;10.944;2022-09-30T03:49:39;8.00;99.90
26037;DHT22;13810;48.376;10.944;2022-09-30T03:50:16;8.00;99.90
26037;DHT22;13810;48.376;10.944;2022-09-30T03:50:47;8.00;99.90
26037;DHT22;13810;48.376;10.944;2022-09-30T03:51:19;8.00;99.90
26037;DHT22;13810;48.376;10.944;2022-09-30T03:51:51;8.00;99.90
26037;DHT22;13810;48.376;10.944;2022-09-30T03:52:23;8.00;99.90
26037;DHT22;13810;48.376;10.944;2022-09-30T03:52:56;8.00;99.90
26037;DHT22;13810;48.376;10.944;2022-09-30T03:53:27;8.00;99.90
26037;DHT22;13810;48.376;10.944;2022-09-30T03:53:58;8.00;99.90
26037;DHT22;13810;48.376;10.944;2022-09-30T03:54:29;8.10;99.90
26037;DHT22;13810;48.376;10.944;2022-09-30T03:55:02;8.10;99.90
26037;DHT22;13810;48.376;10.944;2022-09-30T03:55:46;8.10;99.90
26037;DHT22;13810;48.376;10.944;2022-09-30T03:56:25;8.00;99.90
26037;DHT22;13810;48.376;10.944;2022-09-30T03:56:56;8.00;99.90
26037;DHT22;13810;48.376;10.944;2022-09-30T03:57:29;8.10;99.90
26037;DHT22;13810;48.376;10.944;2022-09-30T03:57:59;8.10;99.90
26037;DHT22;13810;48.376;10.944;2022-09-30T03:58:30;8.10;99.90
26037;DHT22;13810;48.376;10.944;2022-09-30T03:59:00;8.10;99.90
26037;DHT22;13810;48.376;10.944;2022-09-30T03:59:31;8.10;99.90
26037;DHT22;13810;48.376;10.944;2022-09-30T04:00:04;8.10;99.90
26037;DHT22;13810;48.376;10.944;2022-09-30T04:00:36;8.10;99.90
26037;DHT22;13810;48.376;10.944;2022-09-30T04:01:06;8.10;99.90
26037;DHT22;13810;48.376;10.944;2022-09-30T04:01:38;8.00;99.90
26037;DHT22;13810;48.376;10.944;2022-09-30T04:02:10;8.10;99.90
26037;DHT22;13810;48.376;10.944;2022-09-30T04:02:42;8.00;99.90
26037;DHT22;13810;48.376;10.944;2022-09-30T04:03:13;8.00;99.90
26037;DHT22;13810;48.376;10.944;2022-09-30T04:03:44;8.00;99.90
26037;DHT22;13810;48.376;10.944;2022-09-30T04:04:16;8.00;99.90
26037;DHT22;13810;48.376;10.944;2022-09-30T04:04:47;8.00;99.90
26037;DHT22;13810;48.376;10.944;2022-09-30T04:05:18;8.00;99.90
26037;DHT22;13810;48.376;10.944;2022-09-30T04:05:48;8.00;99.90
26037;DHT22;13810;48.376;10.944;2022-09-30T04:06:21;8.00;99.90
26037;DHT22;13810;48.376;10.944;2022-09-30T04:06:52;8.00;99.90
26037;DHT22;13810;48.376;10.944;2022-09-30T04:07:23;7.90;99.90
26037;DHT22;13810;48.376;10.944;2022-09-30T04:07:54;7.90;99.90
26037;DHT22;13810;48.376;10.944;2022-09-30T04:08:25;7.90;99.90
26037;DHT22;13810;48.376;10.944;2022-09-30T04:08:56;7.90;99.90
26037;DHT22;13810;48.376;10.944;2022-09-30T04:09:27;7.90;99.90
26037;DHT22;13810;48.376;10.944;2022-09-30T04:09:57;7.90;99.90
26037;DHT22;13810;48.376;10.944;2022-09-30T04:10:28;7.90;99.90
26037;DHT22;13810;48.376;10.944;2022-09-30T04:10:58;7.90;99.90
26037;DHT22;13810;48.376;10.944;2022-09-30T04:11:29;7.90;99.90
26037;DHT22;13810;48.376;10.944;2022-09-30T04:12:00;7.90;99.90
26037;DHT22;13810;48.376;10.944;2022-09-30T04:12:31;7.80;99.90
26037;DHT22;13810;48.376;10.944;2022-09-30T04:13:01;7.80;99.90
26037;DHT22;13810;48.376;10.944;2022-09-30T04:13:32;7.80;99.90
26037;DHT22;13810;48.376;10.944;2022-09-30T04:14:03;7.80;99.90
26037;DHT22;13810;48.376;10.944;2022-09-30T04:14:35;7.80;99.90
26037;DHT22;13810;48.376;10.944;2022-09-30T04:15:06;7.80;99.90
26037;DHT22;13810;48.376;10.944;2022-09-30T04:15:37;7.80;99.90
26037;DHT22;13810;48.376;10.944;2022-09-30T04:16:08;7.80;99.90
26037;DHT22;13810;48.376;10.944;2022-09-30T04:16:39;7.80;99.90
26037;DHT22;13810;48.376;10.944;2022-09-30T04:17:09;7.70;99.90
26037;DHT22;13810;48.376;10.944;2022-09-30T04:17:40;7.70;99.90
26037;DHT22;13810;48.376;10.944;2022-09-30T04:18:11;7.80;99.90
26037;DHT22;13810;48.376;10.944;2022-09-30T04:18:42;7.80;99.90
26037;DHT22;13810;48.376;10.944;2022-09-30T04:19:12;7.70;99.90
26037;DHT22;13810;48.376;10.944;2022-09-30T04:19:43;7.70;99.90
26037;DHT22;13810;48.376;10.944;2022-09-30T04:20:14;7.70;99.90
26037;DHT22;13810;48.376;10.944;2022-09-30T04:20:44;7.80;99.90
26037;DHT22;13810;48.376;10.944;2022-09-30T04:21:15;7.80;99.90
26037;DHT22;13810;48.376;10.944;2022-09-30T04:21:46;7.80;99.90
26037;DHT22;13810;48.376;10.944;2022-09-30T04:22:16;7.70;99.90
26037;DHT22;13810;48.376;10.944;2022-09-30T04:22:47;7.70;99.90
26037;DHT22;13810;48.376;10.944;2022-09-30T04:23:18;7.70;99.90
26037;DHT22;13810;48.376;10.944;2022-09-30T04:23:50;7.70;99.90
26037;DHT22;13810;48.376;10.944;2022-09-30T04:24:22;7.70;99.90
26037;DHT22;13810;48.376;10.944;2022-09-30T04:24:53;7.70;99.90
26037;DHT22;13810;48.376;10.944;2022-09-30T04:25:24;7.70;99.90
26037;DHT22;13810;48.376;10.944;2022-09-30T04:25:55;7.70;99.90
26037;DHT22;13810;48.376;10.944;2022-09-30T04:26:25;7.70;99.90
26037;DHT22;13810;48.376;10.944;2022-09-30T04:26:56;7.70;99.90
26037;DHT22;13810;48.376;10.944;2022-09-30T04:27:27;7.60;99.90
26037;DHT22;13810;48.376;10.944;2022-09-30T04:27:59;7.70;99.90
26037;DHT22;13810;48.376;10.944;2022-09-30T04:28:30;7.60;99.90
26037;DHT22;13810;48.376;10.944;2022-09-30T04:29:01;7.70;99.90
26037;DHT22;13810;48.376;10.944;2022-09-30T04:29:32;7.70;99.90
26037;DHT22;13810;48.376;10.944;2022-09-30T04:30:03;7.70;99.90
26037;DHT22;13810;48.376;10.944;2022-09-30T04:30:34;7.70;99.90
26037;DHT22;13810;48.376;10.944;2022-09-30T04:31:07;7.60;99.90
26037;DHT22;13810;48.376;10.944;2022-09-30T04:31:39;7.60;99.90
26037;DHT22;13810;48.376;10.944;2022-09-30T04:32:09;7.60;99.90
26037;DHT22;13810;48.376;10.944;2022-09-30T04:32:43;7.60;99.90
26037;DHT22;13810;48.376;10.944;2022-09-30T04:33:17;7.60;99.90
26037;DHT22;13810;48.376;10.944;2022-09-30T04:33:48;7.60;99.90
26037;DHT22;13810;48.376;10.944;2022-09-30T04:34:20;7.60;99.90
26037;DHT22;13810;48.376;10.944;2022-09-30T04:34:51;7.60;99.90
26037;DHT22;13810;48.376;10.944;2022-09-30T04:35:22;7.60;99.90
26037;DHT22;13810;48.376;10.944;2022-09-30T04:35:57;7.50;99.90
26037;DHT22;13810;48.376;10.944;2022-09-30T04:36:28;7.60;99.90